Time;durP1;ratioP1;P1;durP2;ratioP2;P2;SDS_P1;SDS_P2;PMS_P1;PMS_P2;Temp;Humidity;BMP_temperature;BMP_pressure;BME280_temperature;BME280_humidity;BME280_pressure;Samples;Min_cycle;Max_cycle;Signal;HPM_P1;HPM_P2
2021/12/17 00:00:17;;;;;;;18.00;2.90;;;;;;;5.03;91.46;101914.70;102561;1318;22616;-65
2021/12/17 00:03:15;;;;;;;22.50;3.30;;;;;;;5.04;91.43;101915.11;102220;1318;24254;-67
2021/12/17 00:06:05;;;;;;;21.50;3.10;;;;;;;5.04;91.38;101922.93;102347;1319;22564;-67
2021/12/17 00:08:38;;;;;;;22.30;3.90;;;;;;;5.04;91.33;101930.60;102580;1317;22575;-68
2021/12/17 00:11:11;;;;;;;19.70;2.70;;;;;;;5.03;91.32;101934.02;102745;1323;23127;-69
2021/12/17 00:13:44;;;;;;;19.40;3.50;;;;;;;5.03;91.27;101933.29;102594;1316;25942;-68
2021/12/17 00:16:19;;;;;;;19.90;3.70;;;;;;;5.04;91.01;101927.06;102503;1324;24299;-68
2021/12/17 00:19:02;;;;;;;24.30;2.80;;;;;;;5.03;91.10;101926.18;102467;1319;23012;-68
2021/12/17 00:46:36;;;;;;;22.20;3.10;;;;;;;4.96;90.94;101946.61;102307;1320;25416;-68
2021/12/17 00:50:03;;;;;;;19.40;2.60;;;;;;;4.93;90.89;101940.99;102229;1324;22649;-68
2021/12/17 00:52:36;;;;;;;19.20;3.10;;;;;;;4.92;90.93;101941.40;102338;1318;24226;-67
2021/12/17 00:55:09;;;;;;;30.60;3.40;;;;;;;4.92;91.02;101930.72;102271;1318;22645;-68
2021/12/17 00:57:43;;;;;;;19.30;2.90;;;;;;;4.92;90.84;101928.99;102325;1324;24372;-68
2021/12/17 01:00:19;;;;;;;24.70;2.60;;;;;;;4.92;90.97;101934.52;102175;1324;22586;-67
2021/12/17 01:02:51;;;;;;;21.60;2.80;;;;;;;4.91;91.00;101936.17;102287;1319;26659;-68
2021/12/17 01:05:25;;;;;;;21.50;2.70;;;;;;;4.91;91.10;101936.81;102221;1318;24000;-68
2021/12/17 01:07:58;;;;;;;19.00;3.40;;;;;;;4.90;91.08;101932.06;102180;1318;22606;-67
2021/12/17 01:10:32;;;;;;;17.60;3.80;;;;;;;4.90;91.19;101933.17;102276;1325;23046;-68
2021/12/17 01:13:07;;;;;;;16.60;2.70;;;;;;;4.90;91.16;101925.98;102365;1324;25255;-68
2021/12/17 01:15:39;;;;;;;24.20;3.00;;;;;;;4.91;91.12;101934.05;102361;1322;25319;-67
2021/12/17 01:18:15;;;;;;;25.60;4.50;;;;;;;4.90;91.23;101942.42;102824;1316;22817;-67
2021/12/17 01:21:06;;;;;;;15.20;2.40;;;;;;;4.90;91.36;101951.61;102578;1318;22654;-67
2021/12/17 01:24:01;;;;;;;30.10;4.00;;;;;;;4.89;91.38;101952.64;102629;1319;22590;-67
2021/12/17 01:35:27;;;;;;;22.80;4.80;;;;;;;4.88;91.55;101954.94;102573;1318;22620;-67
2021/12/17 01:41:28;;;;;;;15.70;2.50;;;;;;;4.86;91.72;101951.23;102652;1312;24266;-67
2021/12/17 01:44:00;;;;;;;19.50;3.10;;;;;;;4.85;91.71;101953.03;102603;1318;22577;-67
2021/12/17 01:46:33;;;;;;;20.60;3.40;;;;;;;4.84;91.76;101946.01;102710;1315;22564;-67
2021/12/17 01:49:23;;;;;;;22.80;3.50;;;;;;;4.83;91.77;101948.61;102775;1319;25471;-67
2021/12/17 02:00:37;;;;;;;18.60;3.50;;;;;;;4.81;91.85;101925.14;102663;1313;24222;-67
2021/12/17 02:03:09;;;;;;;21.00;4.00;;;;;;;4.81;91.74;101934.63;102681;1315;25419;-68
2021/12/17 02:05:41;;;;;;;16.10;2.50;;;;;;;4.80;91.73;101917.79;102721;1317;22604;-67
2021/12/17 02:08:12;;;;;;;18.50;3.00;;;;;;;4.80;91.61;101912.49;102633;1316;22720;-67
2021/12/17 02:11:21;;;;;;;16.50;3.40;;;;;;;4.80;91.55;101913.60;102592;1312;22787;-67
2021/12/17 02:30:51;;;;;;;18.90;3.20;;;;;;;4.78;90.96;101917.30;102696;1319;22661;-67
2021/12/17 02:33:22;;;;;;;23.90;3.20;;;;;;;4.78;90.93;101914.45;102723;1316;22647;-67
2021/12/17 02:35:53;;;;;;;17.80;3.60;;;;;;;4.78;90.84;101913.83;102859;1312;22807;-67
2021/12/17 02:38:28;;;;;;;14.40;2.80;;;;;;;4.78;90.89;101909.73;102748;1319;25258;-67
2021/12/17 02:46:45;;;;;;;24.90;3.20;;;;;;;4.77;90.68;101928.08;102758;1318;22614;-67
2021/12/17 02:49:16;;;;;;;22.00;2.30;;;;;;;4.76;90.83;101922.30;102753;1318;22564;-67
2021/12/17 02:51:50;;;;;;;20.00;2.80;;;;;;;4.75;90.67;101929.73;102760;1319;22538;-67
2021/12/17 02:54:22;;;;;;;16.80;2.70;;;;;;;4.76;90.83;101926.56;102785;1313;25259;-67
2021/12/17 02:56:54;;;;;;;12.60;2.20;;;;;;;4.75;90.75;101933.06;102793;1312;24427;-67
2021/12/17 02:59:26;;;;;;;20.60;2.50;;;;;;;4.75;90.88;101937.96;102708;1319;25358;-67
2021/12/17 03:01:58;;;;;;;17.10;2.40;;;;;;;4.74;90.76;101942.93;102820;1318;22557;-67
2021/12/17 03:04:30;;;;;;;18.90;2.10;;;;;;;4.74;90.83;101937.80;102666;1313;22567;-67
2021/12/17 03:07:01;;;;;;;31.30;3.00;;;;;;;4.74;90.81;101937.16;102764;1319;22580;-67
2021/12/17 03:09:50;;;;;;;16.20;2.30;;;;;;;4.73;90.80;101936.77;102696;1319;22593;-67
2021/12/17 03:12:28;;;;;;;24.30;3.00;;;;;;;4.73;90.71;101932.83;102736;1318;22999;-67
2021/12/17 03:15:06;;;;;;;21.60;2.80;;;;;;;4.73;90.65;101935.11;102736;1313;22562;-67
2021/12/17 03:18:02;;;;;;;16.20;2.70;;;;;;;4.73;90.63;101933.16;102701;1318;22565;-66
2021/12/17 03:23:29;;;;;;;23.30;3.10;;;;;;;4.72;90.66;101941.29;102724;1317;22988;-67
2021/12/17 03:26:03;;;;;;;18.20;3.30;;;;;;;4.72;90.56;101940.58;102824;1313;25424;-67
2021/12/17 03:28:36;;;;;;;22.90;2.90;;;;;;;4.72;90.64;101937.80;102870;1318;25376;-67
2021/12/17 03:31:07;;;;;;;23.90;2.60;;;;;;;4.72;90.56;101943.49;102885;1313;22712;-67
2021/12/17 03:33:42;;;;;;;17.20;3.00;;;;;;;4.72;90.43;101945.39;102919;1316;25349;-67
2021/12/17 03:36:15;;;;;;;16.60;2.80;;;;;;;4.72;90.49;101952.50;102878;1313;22658;-67
2021/12/17 03:38:48;;;;;;;18.60;2.70;;;;;;;4.72;90.41;101951.31;102782;1318;22634;-67
2021/12/17 03:41:22;;;;;;;20.30;3.50;;;;;;;4.72;90.31;101948.07;102855;1318;22578;-67
2021/12/17 03:43:55;;;;;;;17.00;2.30;;;;;;;4.72;90.35;101947.29;102675;1313;22646;-67
2021/12/17 03:46:25;;;;;;;20.60;3.00;;;;;;;4.71;90.32;101947.14;102741;1319;22606;-67
2021/12/17 03:48:56;;;;;;;17.00;2.20;;;;;;;4.71;90.28;101941.29;102711;1313;22588;-67
2021/12/17 03:51:27;;;;;;;16.40;2.50;;;;;;;4.71;90.23;101944.45;102869;1313;25278;-67
2021/12/17 03:54:01;;;;;;;17.70;2.50;;;;;;;4.70;90.28;101942.63;102830;1316;25259;-67
2021/12/17 03:56:32;;;;;;;20.70;2.50;;;;;;;4.70;90.07;101938.28;102830;1317;25349;-67
2021/12/17 03:59:10;;;;;;;17.90;2.40;;;;;;;4.69;90.11;101928.48;102923;1312;25399;-67
2021/12/17 04:01:42;;;;;;;21.50;2.90;;;;;;;4.69;90.00;101922.72;102970;1312;22581;-67
2021/12/17 04:04:13;;;;;;;26.90;3.30;;;;;;;4.70;90.08;101914.17;102963;1319;22634;-67
2021/12/17 04:06:44;;;;;;;18.90;2.60;;;;;;;4.70;90.09;101925.01;102850;1319;22581;-67
2021/12/17 04:09:19;;;;;;;27.80;3.80;;;;;;;4.70;90.17;101928.33;102710;1313;25309;-67
2021/12/17 04:11:50;;;;;;;17.90;2.70;;;;;;;4.71;90.21;101926.67;102775;1319;22839;-67
2021/12/17 04:14:32;;;;;;;23.30;3.10;;;;;;;4.70;90.22;101929.42;102792;1317;25658;-67
2021/12/17 04:17:05;;;;;;;20.30;2.40;;;;;;;4.70;89.98;101924.68;102682;1313;25323;-67
2021/12/17 04:19:38;;;;;;;26.60;3.60;;;;;;;4.70;90.06;101920.81;102740;1312;24310;-67
2021/12/17 04:22:08;;;;;;;24.80;3.20;;;;;;;4.70;89.77;101923.73;102653;1318;22580;-67
2021/12/17 04:24:39;;;;;;;18.00;2.70;;;;;;;4.69;89.86;101921.21;102680;1312;26209;-67
2021/12/17 04:27:11;;;;;;;19.50;2.50;;;;;;;4.69;89.51;101920.50;102734;1318;22631;-67
2021/12/17 04:29:43;;;;;;;16.20;2.00;;;;;;;4.70;89.66;101904.92;102735;1313;24921;-67
2021/12/17 04:32:14;;;;;;;18.20;2.60;;;;;;;4.69;89.67;101895.45;102763;1313;22594;-67
2021/12/17 04:34:45;;;;;;;18.80;2.30;;;;;;;4.70;89.70;101896.63;102767;1313;22572;-67
2021/12/17 04:37:16;;;;;;;15.70;2.20;;;;;;;4.70;89.54;101890.70;103038;1313;22787;-65
2021/12/17 04:39:48;;;;;;;16.40;2.00;;;;;;;4.71;89.32;101884.30;103027;1316;22653;-67
2021/12/17 04:42:26;;;;;;;21.10;3.50;;;;;;;4.71;89.12;101881.54;102858;1313;22566;-67
2021/12/17 04:44:58;;;;;;;24.70;3.30;;;;;;;4.70;88.73;101888.95;102636;1312;22662;-67
2021/12/17 04:58:46;;;;;;;27.00;3.40;;;;;;;4.70;88.51;101887.15;102480;1318;25284;-67
2021/12/17 05:01:17;;;;;;;14.40;1.80;;;;;;;4.70;88.51;101881.52;102360;1318;22807;-67
2021/12/17 05:03:47;;;;;;;17.00;2.60;;;;;;;4.69;88.01;101884.30;102315;1323;25346;-66
2021/12/17 05:06:19;;;;;;;15.70;2.10;;;;;;;4.69;88.05;101883.27;102277;1318;22773;-67
2021/12/17 05:08:56;;;;;;;18.00;2.50;;;;;;;4.68;88.14;101883.27;102283;1318;22620;-62
2021/12/17 05:18:12;;;;;;;14.80;1.90;;;;;;;4.68;88.01;101889.59;102379;1321;22585;-62
2021/12/17 05:19:58;;;;;;;21.20;2.10;;;;;;;4.60;88.40;101878.48;103093;1303;23343;-64
2021/12/17 05:22:30;;;;;;;15.20;2.60;;;;;;;4.57;88.51;101881.95;103196;1313;22588;-63
2021/12/17 05:25:00;;;;;;;19.70;2.40;;;;;;;4.57;88.51;101875.87;103155;1316;22706;-62
2021/12/17 05:27:32;;;;;;;17.60;2.10;;;;;;;4.56;88.58;101873.18;103193;1320;22580;-62
2021/12/17 05:30:03;;;;;;;15.30;2.10;;;;;;;4.57;88.57;101875.88;103155;1320;22582;-61
2021/12/17 05:32:35;;;;;;;22.60;3.20;;;;;;;4.57;88.48;101880.38;105666;1317;22675;-62
2021/12/17 05:35:09;;;;;;;20.30;2.00;;;;;;;4.57;88.48;101880.70;104023;1313;25726;-61
2021/12/17 05:37:41;;;;;;;21.40;2.40;;;;;;;4.57;88.18;101884.64;103282;1315;22590;-62
2021/12/17 05:40:14;;;;;;;16.30;2.00;;;;;;;4.57;88.17;101893.96;103154;1313;22620;-63
2021/12/17 05:42:47;;;;;;;18.60;2.40;;;;;;;4.58;87.96;101895.08;105368;1319;25284;-63
2021/12/17 05:45:33;;;;;;;16.30;2.30;;;;;;;4.58;88.02;101893.57;103864;1317;24314;-62
2021/12/17 05:48:06;;;;;;;14.30;1.90;;;;;;;4.57;88.33;101880.29;103090;1317;25365;-62
2021/12/17 05:50:39;;;;;;;12.50;1.70;;;;;;;4.58;88.17;101873.80;103191;1317;22593;-62
2021/12/17 05:53:11;;;;;;;12.40;1.70;;;;;;;4.57;88.01;101882.66;103169;1318;24018;-62
2021/12/17 05:55:42;;;;;;;17.00;2.00;;;;;;;4.57;87.69;101883.92;103209;1313;22558;-62
2021/12/17 05:58:14;;;;;;;18.90;2.60;;;;;;;4.56;87.57;101890.17;102932;1313;22593;-62
2021/12/17 06:00:46;;;;;;;14.50;2.20;;;;;;;4.56;87.81;101885.04;102715;1316;24288;-61
2021/12/17 06:03:17;;;;;;;20.70;2.20;;;;;;;4.55;87.75;101893.11;102756;1313;22558;-61
2021/12/17 06:05:48;;;;;;;13.60;1.70;;;;;;;4.55;87.75;101906.30;102583;1316;25383;-62
2021/12/17 06:08:21;;;;;;;21.50;3.60;;;;;;;4.55;87.72;101915.01;102710;1318;26675;-62
2021/12/17 06:10:53;;;;;;;12.60;1.80;;;;;;;4.54;87.49;101914.92;102829;1317;25339;-62
2021/12/17 06:13:24;;;;;;;21.30;2.20;;;;;;;4.54;87.60;101911.68;102748;1313;22573;-62
2021/12/17 06:15:55;;;;;;;16.20;2.50;;;;;;;4.54;87.62;101907.80;102757;1318;25461;-62
2021/12/17 06:18:25;;;;;;;15.50;2.60;;;;;;;4.54;87.86;101904.88;102605;1313;26561;-62
2021/12/17 06:20:57;;;;;;;19.40;2.60;;;;;;;4.52;87.75;101906.15;102757;1313;24219;-62
2021/12/17 06:23:28;;;;;;;19.40;2.40;;;;;;;4.52;87.60;101906.23;102768;1313;22581;-62
2021/12/17 06:25:59;;;;;;;18.70;2.30;;;;;;;4.51;87.86;101907.26;102807;1318;22593;-62
2021/12/17 06:28:34;;;;;;;20.90;2.90;;;;;;;4.50;87.57;101912.08;102943;1313;24088;-61
2021/12/17 06:31:05;;;;;;;19.40;2.30;;;;;;;4.50;87.69;101912.23;102827;1319;22948;-62
2021/12/17 06:33:35;;;;;;;18.10;1.60;;;;;;;4.50;87.62;101914.21;102768;1312;22581;-63
2021/12/17 06:36:07;;;;;;;15.90;2.50;;;;;;;4.49;87.58;101918.95;102766;1317;25439;-62
2021/12/17 06:38:40;;;;;;;21.00;2.40;;;;;;;4.48;87.82;101922.59;102843;1318;25782;-61
2021/12/17 06:41:11;;;;;;;22.30;3.10;;;;;;;4.47;87.56;101923.15;102866;1313;25319;-62
2021/12/17 06:43:44;;;;;;;16.30;2.80;;;;;;;4.47;87.66;101926.38;102841;1313;24426;-62
2021/12/17 06:46:25;;;;;;;16.40;3.30;;;;;;;4.45;87.65;101927.80;102816;1311;22699;-62
2021/12/17 06:49:15;;;;;;;16.80;2.50;;;;;;;4.43;87.39;101932.32;102907;1320;25384;-62
2021/12/17 06:54:42;;;;;;;20.00;1.70;;;;;;;4.40;87.58;101923.15;102868;1316;26294;-60
2021/12/17 07:00:16;;;;;;;14.40;1.70;;;;;;;4.39;87.56;101920.70;102874;1312;22671;-63
2021/12/17 07:05:59;;;;;;;13.90;1.90;;;;;;;4.40;87.82;101918.25;102702;1313;22587;-62
2021/12/17 07:11:33;;;;;;;12.10;2.30;;;;;;;4.37;88.05;101922.04;102744;1313;22573;-61
2021/12/17 07:22:44;;;;;;;19.50;2.40;;;;;;;4.39;87.81;101921.41;103631;1317;22581;-62
2021/12/17 07:28:13;;;;;;;14.90;2.10;;;;;;;4.40;87.79;101915.80;103956;1318;23929;-61
2021/12/17 07:33:44;;;;;;;19.40;2.80;;;;;;;4.40;87.46;101915.89;102721;1319;24317;-61
2021/12/17 07:36:18;;;;;;;19.70;2.30;;;;;;;4.39;87.33;101915.09;102893;1313;25259;-61
2021/12/17 07:38:50;;;;;;;16.80;2.90;;;;;;;4.41;86.95;101913.73;102778;1312;22899;-62
2021/12/17 07:41:21;;;;;;;24.90;3.20;;;;;;;4.41;86.53;101919.43;102728;1312;25442;-61
2021/12/17 07:43:56;;;;;;;19.90;2.30;;;;;;;4.41;86.67;101909.55;102692;1316;22555;-62
2021/12/17 07:46:27;;;;;;;11.90;1.60;;;;;;;4.42;86.57;101917.23;102676;1319;22593;-62
2021/12/17 07:48:58;;;;;;;21.90;3.20;;;;;;;4.42;86.85;101916.52;102725;1320;25345;-62
2021/12/17 07:51:30;;;;;;;13.80;2.10;;;;;;;4.42;86.49;101912.88;102906;1313;22593;-62
2021/12/17 07:54:01;;;;;;;14.60;2.10;;;;;;;4.42;86.34;101920.48;102732;1313;24241;-63
2021/12/17 07:56:37;;;;;;;13.00;2.20;;;;;;;4.41;85.98;101931.13;102655;1313;25362;-62
2021/12/17 07:59:09;;;;;;;17.10;2.10;;;;;;;4.42;86.36;101929.86;102741;1313;25400;-61
2021/12/17 08:01:42;;;;;;;15.00;1.60;;;;;;;4.41;86.08;101931.36;102690;1313;25013;-61
2021/12/17 08:04:13;;;;;;;19.20;2.10;;;;;;;4.40;86.31;101933.11;102640;1319;22570;-62
2021/12/17 08:06:44;;;;;;;17.30;2.20;;;;;;;4.40;86.08;101945.27;102696;1319;22616;-61
2021/12/17 08:09:15;;;;;;;16.40;2.40;;;;;;;4.39;86.16;101945.98;102692;1312;22699;-62
2021/12/17 08:11:53;;;;;;;17.20;2.40;;;;;;;4.39;86.21;101947.80;102753;1318;22567;-62
2021/12/17 08:14:27;;;;;;;19.70;2.30;;;;;;;4.39;86.24;101948.02;102733;1313;22646;-62
2021/12/17 08:17:07;;;;;;;16.70;2.10;;;;;;;4.39;85.93;101955.85;102900;1320;26579;-61
2021/12/17 08:25:16;;;;;;;20.40;2.40;;;;;;;4.39;85.96;101954.59;102646;1317;25244;-62
2021/12/17 08:28:02;;;;;;;17.70;2.20;;;;;;;4.39;85.34;101959.00;102721;1320;22644;-62
2021/12/17 08:30:38;;;;;;;14.40;2.10;;;;;;;4.38;85.75;101956.88;102690;1318;22678;-62
2021/12/17 08:33:10;;;;;;;10.70;1.80;;;;;;;4.38;85.68;101969.05;102586;1313;22567;-64
2021/12/17 08:35:41;;;;;;;11.20;1.90;;;;;;;4.37;85.61;101966.84;102650;1312;22610;-62
2021/12/17 08:38:13;;;;;;;21.00;2.40;;;;;;;4.38;85.77;101973.32;102680;1312;24301;-63
2021/12/17 08:40:44;;;;;;;17.70;2.00;;;;;;;4.38;85.68;101985.25;102826;1311;24684;-61
2021/12/17 08:43:15;;;;;;;14.00;1.70;;;;;;;4.39;85.72;101986.34;102717;1317;22801;-61
2021/12/17 08:45:46;;;;;;;21.20;2.20;;;;;;;4.39;85.60;101986.66;102703;1320;24327;-62
2021/12/17 08:48:17;;;;;;;14.20;2.00;;;;;;;4.39;85.24;101985.31;102624;1312;22564;-61
2021/12/17 08:50:48;;;;;;;12.70;2.10;;;;;;;4.39;84.88;101988.55;102692;1312;22647;-62
2021/12/17 08:53:18;;;;;;;17.00;2.60;;;;;;;4.38;84.55;101996.87;102667;1313;23121;-61
2021/12/17 08:55:50;;;;;;;17.10;3.10;;;;;;;4.39;84.47;101993.70;102762;1313;22779;-61
2021/12/17 08:58:21;;;;;;;12.20;2.30;;;;;;;4.38;85.30;101993.31;102709;1317;22584;-61
2021/12/17 09:00:52;;;;;;;17.20;3.20;;;;;;;4.38;85.49;101986.75;102703;1317;22560;-62
2021/12/17 09:03:23;;;;;;;17.40;2.60;;;;;;;4.39;85.45;101990.63;102847;1317;25238;-62
2021/12/17 09:05:54;;;;;;;15.60;2.30;;;;;;;4.39;84.98;101989.58;102857;1312;22675;-61
2021/12/17 09:08:25;;;;;;;18.10;2.40;;;;;;;4.38;84.75;101989.52;102633;1318;22592;-62
2021/12/17 09:10:56;;;;;;;12.10;2.30;;;;;;;4.39;84.44;101991.17;102621;1317;22561;-62
2021/12/17 09:13:28;;;;;;;16.00;1.70;;;;;;;4.39;84.51;101985.08;102623;1318;23150;-62
2021/12/17 09:16:04;;;;;;;14.90;2.20;;;;;;;4.40;84.85;101988.41;102805;1319;22603;-63
2021/12/17 09:18:36;;;;;;;17.50;1.90;;;;;;;4.41;84.82;101991.40;102718;1320;25413;-61
2021/12/17 09:21:07;;;;;;;16.80;2.60;;;;;;;4.42;84.57;101992.98;102753;1312;26623;-63
2021/12/17 09:23:39;;;;;;;15.50;2.70;;;;;;;4.42;84.31;101992.84;102624;1312;24218;-61
2021/12/17 09:26:09;;;;;;;15.40;1.80;;;;;;;4.41;83.74;101989.11;102696;1319;25496;-62
2021/12/17 09:28:41;;;;;;;15.20;2.00;;;;;;;4.40;83.80;101988.88;102660;1312;22600;-61
2021/12/17 09:31:12;;;;;;;14.00;2.20;;;;;;;4.41;84.18;101990.23;102856;1318;22802;-61
2021/12/17 09:33:46;;;;;;;11.40;2.30;;;;;;;4.42;84.72;101986.20;102734;1320;24240;-62
2021/12/17 09:36:18;;;;;;;12.30;1.90;;;;;;;4.44;84.68;101985.80;102786;1312;24270;-60
2021/12/17 09:38:52;;;;;;;19.60;3.50;;;;;;;4.45;84.45;101986.52;102672;1317;22586;-61
2021/12/17 09:41:26;;;;;;;16.00;2.50;;;;;;;4.44;84.39;101986.13;102634;1313;25308;-61
2021/12/17 09:43:58;;;;;;;14.10;1.70;;;;;;;4.44;84.36;101986.13;102724;1312;25540;-62
2021/12/17 09:46:29;;;;;;;15.00;2.20;;;;;;;4.43;83.95;101992.53;102735;1312;22691;-62
2021/12/17 09:49:01;;;;;;;21.20;3.50;;;;;;;4.43;83.97;101986.76;102747;1319;22599;-61
2021/12/17 09:51:32;;;;;;;16.60;2.40;;;;;;;4.43;84.42;101981.16;102819;1312;24249;-63
2021/12/17 09:54:02;;;;;;;11.80;2.20;;;;;;;4.43;84.51;101976.96;102638;1315;24261;-62
2021/12/17 09:56:33;;;;;;;15.70;2.00;;;;;;;4.44;84.41;101969.69;102736;1313;22603;-61
2021/12/17 09:59:05;;;;;;;12.20;1.70;;;;;;;4.46;84.62;101964.94;102769;1318;23135;-61
2021/12/17 10:01:42;;;;;;;15.70;3.20;;;;;;;4.48;83.90;101967.55;102794;1315;24206;-61
2021/12/17 10:04:18;;;;;;;11.00;1.80;;;;;;;4.49;84.01;101964.38;102763;1317;25373;-62
2021/12/17 10:06:51;;;;;;;18.20;3.50;;;;;;;4.50;83.62;101968.97;102794;1320;24243;-61
2021/12/17 10:09:33;;;;;;;19.50;3.50;;;;;;;4.50;83.95;101974.19;102921;1313;22686;-63
2021/12/17 10:12:06;;;;;;;16.60;2.40;;;;;;;4.52;84.24;101974.89;102618;1313;22585;-61
2021/12/17 10:14:37;;;;;;;18.20;2.00;;;;;;;4.54;84.34;101977.44;102775;1313;22561;-62
2021/12/17 10:17:11;;;;;;;13.20;3.60;;;;;;;4.56;84.18;101980.89;102613;1317;24310;-62
2021/12/17 10:19:47;;;;;;;19.10;2.30;;;;;;;4.57;83.57;101979.64;102882;1312;22593;-63
2021/12/17 10:22:20;;;;;;;13.50;2.50;;;;;;;4.58;83.64;101974.10;102727;1313;25356;-62
2021/12/17 10:25:03;;;;;;;13.80;2.10;;;;;;;4.58;83.19;101965.97;102927;1318;22593;-62
2021/12/17 10:27:36;;;;;;;13.80;3.10;;;;;;;4.59;83.55;101969.35;102749;1318;25353;-63
2021/12/17 10:30:15;;;;;;;17.20;2.60;;;;;;;4.62;83.87;101969.36;102674;1315;22657;-63
2021/12/17 10:32:49;;;;;;;15.60;2.30;;;;;;;4.64;83.14;101974.89;102779;1313;24254;-62
2021/12/17 10:35:21;;;;;;;15.40;2.30;;;;;;;4.65;83.67;101971.26;102761;1316;25415;-62
2021/12/17 10:37:56;;;;;;;14.80;2.00;;;;;;;4.67;83.30;101979.87;102836;1313;24329;-62
2021/12/17 10:40:30;;;;;;;13.80;2.60;;;;;;;4.68;83.30;101981.45;102816;1315;24121;-62
2021/12/17 10:43:05;;;;;;;17.30;2.60;;;;;;;4.70;83.02;101977.89;102902;1320;22724;-62
2021/12/17 10:45:41;;;;;;;20.40;2.60;;;;;;;4.70;82.77;101970.92;103113;1321;22657;-62
2021/12/17 10:51:24;;;;;;;14.40;1.50;;;;;;;4.69;82.31;101978.77;102271;1323;22847;-63
2021/12/17 10:53:56;;;;;;;16.10;2.60;;;;;;;4.69;83.06;101986.34;102471;1320;23648;-61
2021/12/17 10:56:32;;;;;;;12.00;1.60;;;;;;;4.69;83.30;101972.68;102367;1323;22686;-62
2021/12/17 10:59:05;;;;;;;17.30;2.00;;;;;;;4.71;83.21;101979.79;102483;1322;22599;-62
2021/12/17 11:01:47;;;;;;;16.20;2.60;;;;;;;4.73;83.25;101976.45;102640;1318;25281;-62
2021/12/17 11:04:22;;;;;;;13.00;2.20;;;;;;;4.74;83.34;101966.96;102727;1318;22864;-61
2021/12/17 11:06:56;;;;;;;14.00;2.00;;;;;;;4.75;83.14;101961.28;102604;1325;22681;-62
2021/12/17 11:09:42;;;;;;;11.50;2.10;;;;;;;4.76;83.07;101969.26;102312;1318;24694;-62
2021/12/17 11:12:32;;;;;;;15.80;3.00;;;;;;;4.76;83.20;101977.71;102328;1318;22722;-62
2021/12/17 11:15:19;;;;;;;15.70;2.40;;;;;;;4.77;83.39;101967.44;102422;1318;25270;-62
2021/12/17 11:17:52;;;;;;;12.50;1.90;;;;;;;4.78;83.54;101963.73;102411;1318;25490;-62
2021/12/17 11:20:26;;;;;;;19.40;2.20;;;;;;;4.80;82.99;101969.98;102344;1318;22589;-63
2021/12/17 11:23:03;;;;;;;13.50;2.40;;;;;;;4.78;82.79;101960.71;103350;1302;25256;-64
2021/12/17 11:25:37;;;;;;;11.20;1.70;;;;;;;4.77;82.81;101967.98;103009;1313;26516;-62
2021/12/17 11:28:11;;;;;;;12.60;1.90;;;;;;;4.76;82.91;101969.66;103045;1317;22700;-64
2021/12/17 11:30:44;;;;;;;17.90;2.70;;;;;;;4.76;82.92;101968.63;102876;1317;25255;-64
2021/12/17 11:33:16;;;;;;;11.50;1.70;;;;;;;4.76;82.91;101965.86;102890;1316;26536;-64
2021/12/17 11:35:49;;;;;;;17.50;3.50;;;;;;;4.76;83.10;101965.23;103049;1313;23128;-62
2021/12/17 11:38:29;;;;;;;17.60;2.40;;;;;;;4.76;83.30;101969.73;103311;1313;22804;-62
2021/12/17 11:41:13;;;;;;;21.40;2.60;;;;;;;4.77;83.36;101967.61;102921;1312;22774;-63
2021/12/17 11:43:53;;;;;;;18.60;3.50;;;;;;;4.78;83.04;101967.52;103045;1313;24261;-63
2021/12/17 11:46:31;;;;;;;16.70;2.90;;;;;;;4.77;83.18;101966.34;103059;1312;26524;-62
2021/12/17 11:49:04;;;;;;;13.60;2.30;;;;;;;4.77;83.25;101959.77;103093;1319;22780;-62
2021/12/17 11:51:37;;;;;;;12.40;1.80;;;;;;;4.77;83.24;101954.31;102977;1317;24219;-63
2021/12/17 11:54:10;;;;;;;18.20;2.30;;;;;;;4.76;83.05;101951.95;103076;1317;26594;-63
2021/12/17 11:56:47;;;;;;;27.40;2.40;;;;;;;4.77;83.41;101947.27;102993;1314;23120;-62
2021/12/17 11:59:42;;;;;;;11.10;1.70;;;;;;;4.77;83.42;101946.17;102943;1312;22736;-63
2021/12/17 12:02:17;;;;;;;11.20;1.80;;;;;;;4.77;83.18;101947.04;102939;1312;27686;-63
2021/12/17 12:04:59;;;;;;;10.50;1.70;;;;;;;4.76;83.03;101942.77;103006;1317;25344;-63
2021/12/17 12:07:40;;;;;;;19.50;2.30;;;;;;;4.75;82.43;101949.73;103125;1312;25461;-63
2021/12/17 12:10:22;;;;;;;8.90;1.70;;;;;;;4.74;82.03;101953.60;103006;1313;25545;-63
2021/12/17 12:13:06;;;;;;;16.50;2.20;;;;;;;4.74;82.25;101950.60;103177;1313;22571;-63
2021/12/17 12:16:02;;;;;;;15.40;2.50;;;;;;;4.74;82.27;101950.44;102976;1312;23067;-62
2021/12/17 12:18:47;;;;;;;9.60;1.50;;;;;;;4.71;82.03;101954.95;103161;1317;22779;-62
2021/12/17 12:21:19;;;;;;;12.90;2.30;;;;;;;4.69;82.27;101956.30;103061;1312;23948;-63
2021/12/17 12:24:13;;;;;;;12.30;1.90;;;;;;;4.68;82.59;101956.30;103236;1313;24346;-63
2021/12/17 12:26:49;;;;;;;8.30;1.70;;;;;;;4.67;82.86;101956.39;103004;1312;22599;-63
2021/12/17 12:29:24;;;;;;;11.80;1.60;;;;;;;4.68;82.98;101950.21;103038;1312;25479;-63
2021/12/17 12:32:02;;;;;;;9.70;1.20;;;;;;;4.69;82.69;101952.74;103124;1314;25351;-62
2021/12/17 12:34:37;;;;;;;11.30;1.60;;;;;;;4.67;82.43;101952.20;103001;1312;25429;-63
2021/12/17 12:37:20;;;;;;;5.10;1.00;;;;;;;4.63;82.47;101944.14;102941;1312;22551;-62
2021/12/17 12:40:21;;;;;;;6.30;1.00;;;;;;;4.62;82.30;101939.24;103064;1319;22600;-63
2021/12/17 12:42:57;;;;;;;9.90;2.30;;;;;;;4.61;82.38;101943.45;102832;1316;22607;-62
2021/12/17 12:45:32;;;;;;;8.70;1.50;;;;;;;4.61;82.58;101941.63;102933;1312;26609;-62
2021/12/17 12:48:05;;;;;;;10.80;1.20;;;;;;;4.62;82.58;101941.78;102993;1312;24164;-62
2021/12/17 12:50:37;;;;;;;9.80;0.90;;;;;;;4.61;81.94;101939.50;103003;1319;24320;-62
2021/12/17 12:53:11;;;;;;;7.30;1.00;;;;;;;4.61;82.17;101938.15;103034;1312;24404;-63
2021/12/17 12:55:45;;;;;;;11.00;1.30;;;;;;;4.59;82.41;101930.80;103066;1312;372986;-63
2021/12/17 12:58:20;;;;;;;10.80;1.40;;;;;;;4.59;82.74;101929.21;103168;1318;25464;-63
2021/12/17 13:00:56;;;;;;;14.30;1.30;;;;;;;4.58;82.41;101929.77;102913;1313;24310;-64
2021/12/17 13:03:29;;;;;;;8.50;1.10;;;;;;;4.57;82.53;101928.59;102926;1312;22655;-64
2021/12/17 13:06:02;;;;;;;10.20;0.90;;;;;;;4.56;82.38;101932.23;102979;1310;22779;-64
2021/12/17 13:08:33;;;;;;;10.90;1.50;;;;;;;4.55;81.71;101940.36;102940;1312;25428;-63
2021/12/17 13:11:06;;;;;;;11.40;1.40;;;;;;;4.53;81.39;101933.02;103196;1313;24435;-65
2021/12/17 13:13:44;;;;;;;10.00;1.20;;;;;;;4.53;81.53;101933.90;102860;1316;22588;-65
2021/12/17 13:16:20;;;;;;;7.10;1.10;;;;;;;4.52;81.53;101927.57;102857;1312;24778;-64
2021/12/17 13:21:46;;;;;;;14.60;1.60;;;;;;;4.50;81.66;101929.62;102937;1317;22612;-64
2021/12/17 13:24:23;;;;;;;6.80;1.20;;;;;;;4.49;81.28;101938.86;102948;1313;22603;-65
2021/12/17 13:26:56;;;;;;;9.80;1.20;;;;;;;4.48;81.61;101929.86;102995;1315;26587;-65
2021/12/17 13:29:32;;;;;;;7.10;1.00;;;;;;;4.48;81.75;101929.70;102915;1312;22647;-65
2021/12/17 13:32:05;;;;;;;9.20;1.20;;;;;;;4.47;81.73;101931.20;103118;1313;23862;-65
2021/12/17 13:34:38;;;;;;;11.00;1.50;;;;;;;4.46;81.55;101932.71;103025;1317;22573;-64
2021/12/17 13:37:14;;;;;;;10.40;1.60;;;;;;;4.45;81.86;101936.82;103111;1313;24032;-64
2021/12/17 13:39:49;;;;;;;13.10;1.80;;;;;;;4.43;82.13;101935.95;103116;1317;25269;-65
2021/12/17 13:42:22;;;;;;;8.70;1.60;;;;;;;4.42;82.47;101941.33;102927;1313;25362;-65
2021/12/17 13:44:54;;;;;;;12.50;1.60;;;;;;;4.42;82.81;101943.07;102958;1317;25326;-65
2021/12/17 13:47:29;;;;;;;12.20;1.80;;;;;;;4.41;83.07;101940.77;102873;1312;25677;-65
2021/12/17 13:50:09;;;;;;;13.20;1.90;;;;;;;4.40;83.19;101945.98;102964;1312;22809;-66
2021/12/17 13:52:48;;;;;;;16.10;2.10;;;;;;;4.37;83.08;101942.11;103235;1312;22606;-65
2021/12/17 13:55:25;;;;;;;12.80;2.30;;;;;;;4.35;83.03;101939.43;102915;1312;25259;-63
2021/12/17 13:58:01;;;;;;;9.30;1.60;;;;;;;4.34;83.10;101939.83;103093;1319;22711;-64